sensor_id;sensor_type;location;lat;lon;timestamp;temperature;humidity
25914;DHT22;13718;50.922;5.346;2023-07-20T00:01:03;16.90;99.90
25914;DHT22;13718;50.922;5.346;2023-07-20T00:03:29;16.90;99.90
25914;DHT22;13718;50.922;5.346;2023-07-20T00:05:54;16.90;99.90
25914;DHT22;13718;50.922;5.346;2023-07-20T00:08:20;16.80;99.90
25914;DHT22;13718;50.922;5.346;2023-07-20T00:10:46;16.80;99.90
25914;DHT22;13718;50.922;5.346;2023-07-20T00:13:11;16.80;99.90
25914;DHT22;13718;50.922;5.346;2023-07-20T00:15:37;16.80;99.90
25914;DHT22;13718;50.922;5.346;2023-07-20T00:18:03;16.80;99.90
25914;DHT22;13718;50.922;5.346;2023-07-20T00:20:29;16.80;99.90
25914;DHT22;13718;50.922;5.346;2023-07-20T00:22:55;16.70;99.90
25914;DHT22;13718;50.922;5.346;2023-07-20T00:25:23;16.60;99.90
25914;DHT22;13718;50.922;5.346;2023-07-20T00:27:49;16.50;99.90
25914;DHT22;13718;50.922;5.346;2023-07-20T00:30:15;16.50;99.90
25914;DHT22;13718;50.922;5.346;2023-07-20T00:32:42;16.60;99.90
25914;DHT22;13718;50.922;5.346;2023-07-20T00:35:07;16.60;99.90
25914;DHT22;13718;50.922;5.346;2023-07-20T00:37:33;16.60;99.90
25914;DHT22;13718;50.922;5.346;2023-07-20T00:39:59;16.50;99.90
25914;DHT22;13718;50.922;5.346;2023-07-20T00:42:24;16.40;99.90
25914;DHT22;13718;50.922;5.346;2023-07-20T00:44:50;16.40;99.90
25914;DHT22;13718;50.922;5.346;2023-07-20T00:47:15;16.30;99.90
25914;DHT22;13718;50.922;5.346;2023-07-20T00:49:41;16.40;99.90
25914;DHT22;13718;50.922;5.346;2023-07-20T00:52:08;16.30;99.90
25914;DHT22;13718;50.922;5.346;2023-07-20T00:54:36;16.40;99.90
25914;DHT22;13718;50.922;5.346;2023-07-20T00:57:02;16.40;99.90
25914;DHT22;13718;50.922;5.346;2023-07-20T00:59:28;16.40;99.90
25914;DHT22;13718;50.922;5.346;2023-07-20T01:01:54;16.40;99.90
25914;DHT22;13718;50.922;5.346;2023-07-20T01:04:20;16.40;99.90
25914;DHT22;13718;50.922;5.346;2023-07-20T01:07:17;16.40;99.90
25914;DHT22;13718;50.922;5.346;2023-07-20T01:10:03;16.50;99.90
25914;DHT22;13718;50.922;5.346;2023-07-20T01:12:47;16.40;99.90
25914;DHT22;13718;50.922;5.346;2023-07-20T01:15:14;16.40;99.90
25914;DHT22;13718;50.922;5.346;2023-07-20T01:17:39;16.50;99.90
25914;DHT22;13718;50.922;5.346;2023-07-20T01:20:13;16.50;99.90
25914;DHT22;13718;50.922;5.346;2023-07-20T01:31:32;16.30;99.90
25914;DHT22;13718;50.922;5.346;2023-07-20T01:34:00;16.30;99.90
25914;DHT22;13718;50.922;5.346;2023-07-20T01:36:29;16.30;99.90
25914;DHT22;13718;50.922;5.346;2023-07-20T01:38:56;16.30;99.90
25914;DHT22;13718;50.922;5.346;2023-07-20T01:41:22;16.30;99.90
25914;DHT22;13718;50.922;5.346;2023-07-20T01:43:48;16.30;99.90
25914;DHT22;13718;50.922;5.346;2023-07-20T01:46:14;16.30;99.90
25914;DHT22;13718;50.922;5.346;2023-07-20T01:48:39;16.30;99.90
25914;DHT22;13718;50.922;5.346;2023-07-20T01:51:05;16.30;99.90
25914;DHT22;13718;50.922;5.346;2023-07-20T01:53:30;16.40;99.90
25914;DHT22;13718;50.922;5.346;2023-07-20T01:55:56;16.30;99.90
25914;DHT22;13718;50.922;5.346;2023-07-20T01:58:22;16.30;99.90
25914;DHT22;13718;50.922;5.346;2023-07-20T02:00:48;16.30;99.90
25914;DHT22;13718;50.922;5.346;2023-07-20T02:03:13;16.20;99.90
25914;DHT22;13718;50.922;5.346;2023-07-20T02:05:39;16.20;99.90
25914;DHT22;13718;50.922;5.346;2023-07-20T02:08:07;16.20;99.90
25914;DHT22;13718;50.922;5.346;2023-07-20T02:10:32;16.10;99.90
25914;DHT22;13718;50.922;5.346;2023-07-20T02:12:58;16.10;99.90
25914;DHT22;13718;50.922;5.346;2023-07-20T02:15:23;16.00;99.90
25914;DHT22;13718;50.922;5.346;2023-07-20T02:17:49;16.00;99.90
25914;DHT22;13718;50.922;5.346;2023-07-20T02:20:15;15.90;99.90
25914;DHT22;13718;50.922;5.346;2023-07-20T02:22:40;16.00;99.90
25914;DHT22;13718;50.922;5.346;2023-07-20T02:25:07;15.90;99.90
25914;DHT22;13718;50.922;5.346;2023-07-20T02:27:37;15.90;99.90
25914;DHT22;13718;50.922;5.346;2023-07-20T02:30:03;15.90;99.90
25914;DHT22;13718;50.922;5.346;2023-07-20T02:32:30;16.00;99.90
25914;DHT22;13718;50.922;5.346;2023-07-20T02:34:55;16.00;99.90
25914;DHT22;13718;50.922;5.346;2023-07-20T02:37:21;16.10;99.90
25914;DHT22;13718;50.922;5.346;2023-07-20T02:39:46;16.10;99.90
25914;DHT22;13718;50.922;5.346;2023-07-20T02:42:12;16.00;99.90
25914;DHT22;13718;50.922;5.346;2023-07-20T02:44:38;15.90;99.90
25914;DHT22;13718;50.922;5.346;2023-07-20T02:47:04;15.90;99.90
25914;DHT22;13718;50.922;5.346;2023-07-20T02:49:29;15.90;99.90
25914;DHT22;13718;50.922;5.346;2023-07-20T02:51:55;15.90;99.90
25914;DHT22;13718;50.922;5.346;2023-07-20T02:54:21;15.80;99.90
25914;DHT22;13718;50.922;5.346;2023-07-20T02:56:47;15.80;99.90
25914;DHT22;13718;50.922;5.346;2023-07-20T02:59:12;15.70;99.90
25914;DHT22;13718;50.922;5.346;2023-07-20T03:01:38;15.70;99.90
25914;DHT22;13718;50.922;5.346;2023-07-20T03:04:03;15.70;99.90
25914;DHT22;13718;50.922;5.346;2023-07-20T03:06:29;15.80;99.90
25914;DHT22;13718;50.922;5.346;2023-07-20T03:08:55;15.80;99.90
25914;DHT22;13718;50.922;5.346;2023-07-20T03:11:20;15.70;99.90
25914;DHT22;13718;50.922;5.346;2023-07-20T03:13:47;15.60;99.90
25914;DHT22;13718;50.922;5.346;2023-07-20T03:16:14;15.60;99.90
25914;DHT22;13718;50.922;5.346;2023-07-20T03:18:41;15.60;99.90
25914;DHT22;13718;50.922;5.346;2023-07-20T03:21:08;15.60;99.90
25914;DHT22;13718;50.922;5.346;2023-07-20T03:23:34;15.60;99.90
25914;DHT22;13718;50.922;5.346;2023-07-20T03:26:00;15.60;99.90
25914;DHT22;13718;50.922;5.346;2023-07-20T03:28:26;15.60;99.90
25914;DHT22;13718;50.922;5.346;2023-07-20T03:30:56;15.70;99.90
25914;DHT22;13718;50.922;5.346;2023-07-20T03:33:28;15.80;99.90
25914;DHT22;13718;50.922;5.346;2023-07-20T03:35:54;15.80;99.90
25914;DHT22;13718;50.922;5.346;2023-07-20T03:38:21;15.80;99.90
25914;DHT22;13718;50.922;5.346;2023-07-20T03:40:56;15.90;99.90
25914;DHT22;13718;50.922;5.346;2023-07-20T03:43:23;15.90;99.90
25914;DHT22;13718;50.922;5.346;2023-07-20T03:45:49;15.90;99.90
25914;DHT22;13718;50.922;5.346;2023-07-20T03:48:20;16.00;99.90
25914;DHT22;13718;50.922;5.346;2023-07-20T03:50:48;16.00;99.90
25914;DHT22;13718;50.922;5.346;2023-07-20T03:53:15;16.10;99.90
25914;DHT22;13718;50.922;5.346;2023-07-20T03:55:44;16.10;99.90
25914;DHT22;13718;50.922;5.346;2023-07-20T03:58:11;16.10;99.90
25914;DHT22;13718;50.922;5.346;2023-07-20T04:00:37;16.10;99.90
25914;DHT22;13718;50.922;5.346;2023-07-20T04:03:02;16.20;99.90
25914;DHT22;13718;50.922;5.346;2023-07-20T04:05:28;16.20;99.90
25914;DHT22;13718;50.922;5.346;2023-07-20T04:07:54;16.20;99.90
25914;DHT22;13718;50.922;5.346;2023-07-20T04:10:19;16.20;99.90
25914;DHT22;13718;50.922;5.346;2023-07-20T04:12:45;16.20;99.90
25914;DHT22;13718;50.922;5.346;2023-07-20T04:15:13;16.20;99.90
25914;DHT22;13718;50.922;5.346;2023-07-20T04:17:39;16.20;99.90
25914;DHT22;13718;50.922;5.346;2023-07-20T04:20:05;16.20;99.90
25914;DHT22;13718;50.922;5.346;2023-07-20T04:22:31;16.30;99.90
25914;DHT22;13718;50.922;5.346;2023-07-20T04:24:57;16.30;99.90
25914;DHT22;13718;50.922;5.346;2023-07-20T04:27:22;16.20;99.90
25914;DHT22;13718;50.922;5.346;2023-07-20T04:29:48;16.20;99.90
25914;DHT22;13718;50.922;5.346;2023-07-20T04:32:13;16.30;99.90
25914;DHT22;13718;50.922;5.346;2023-07-20T04:34:39;16.30;99.90
25914;DHT22;13718;50.922;5.346;2023-07-20T04:37:05;16.30;99.90
25914;DHT22;13718;50.922;5.346;2023-07-20T04:39:30;16.30;99.90
25914;DHT22;13718;50.922;5.346;2023-07-20T04:41:56;16.40;99.90
25914;DHT22;13718;50.922;5.346;2023-07-20T04:44:22;16.40;99.90
25914;DHT22;13718;50.922;5.346;2023-07-20T04:46:47;16.50;99.90
25914;DHT22;13718;50.922;5.346;2023-07-20T04:49:13;16.60;99.90
25914;DHT22;13718;50.922;5.346;2023-07-20T04:51:39;16.60;99.90
25914;DHT22;13718;50.922;5.346;2023-07-20T04:54:04;16.60;99.90
25914;DHT22;13718;50.922;5.346;2023-07-20T04:56:30;16.50;99.90
25914;DHT22;13718;50.922;5.346;2023-07-20T04:58:56;16.60;99.90
25914;DHT22;13718;50.922;5.346;2023-07-20T05:01:23;16.60;99.90
25914;DHT22;13718;50.922;5.346;2023-07-20T05:03:48;16.70;99.90
25914;DHT22;13718;50.922;5.346;2023-07-20T05:06:14;16.70;99.90
25914;DHT22;13718;50.922;5.346;2023-07-20T05:08:40;16.70;99.90
25914;DHT22;13718;50.922;5.346;2023-07-20T05:11:06;16.70;99.90
25914;DHT22;13718;50.922;5.346;2023-07-20T05:13:32;16.70;99.90
25914;DHT22;13718;50.922;5.346;2023-07-20T05:15:58;16.80;99.90
25914;DHT22;13718;50.922;5.346;2023-07-20T05:18:24;16.80;99.90
25914;DHT22;13718;50.922;5.346;2023-07-20T05:20:50;16.90;99.90
25914;DHT22;13718;50.922;5.346;2023-07-20T05:23:19;17.00;99.90
25914;DHT22;13718;50.922;5.346;2023-07-20T05:25:54;17.00;99.90
25914;DHT22;13718;50.922;5.346;2023-07-20T05:28:20;17.00;99.90
25914;DHT22;13718;50.922;5.346;2023-07-20T05:30:46;17.10;99.90
25914;DHT22;13718;50.922;5.346;2023-07-20T05:33:11;17.20;99.90
25914;DHT22;13718;50.922;5.346;2023-07-20T05:35:37;17.30;99.90
25914;DHT22;13718;50.922;5.346;2023-07-20T05:38:03;17.40;99.90
25914;DHT22;13718;50.922;5.346;2023-07-20T05:40:30;17.50;99.90
25914;DHT22;13718;50.922;5.346;2023-07-20T05:42:55;17.60;99.90
25914;DHT22;13718;50.922;5.346;2023-07-20T05:45:22;17.60;99.90
25914;DHT22;13718;50.922;5.346;2023-07-20T05:47:48;17.60;99.90
25914;DHT22;13718;50.922;5.346;2023-07-20T05:50:13;17.70;99.90
25914;DHT22;13718;50.922;5.346;2023-07-20T05:52:40;17.80;99.90
25914;DHT22;13718;50.922;5.346;2023-07-20T05:55:06;17.90;99.90
25914;DHT22;13718;50.922;5.346;2023-07-20T05:57:32;18.00;99.90
25914;DHT22;13718;50.922;5.346;2023-07-20T05:59:58;18.20;99.90
25914;DHT22;13718;50.922;5.346;2023-07-20T06:02:23;18.30;99.90
25914;DHT22;13718;50.922;5.346;2023-07-20T06:04:49;18.50;99.90
25914;DHT22;13718;50.922;5.346;2023-07-20T06:07:15;18.80;99.90
25914;DHT22;13718;50.922;5.346;2023-07-20T06:09:40;19.20;99.90
25914;DHT22;13718;50.922;5.346;2023-07-20T06:12:07;19.90;99.90
25914;DHT22;13718;50.922;5.346;2023-07-20T06:14:32;21.00;99.90
25914;DHT22;13718;50.922;5.346;2023-07-20T06:16:58;21.80;99.90
25914;DHT22;13718;50.922;5.346;2023-07-20T06:19:24;22.00;99.90
25914;DHT22;13718;50.922;5.346;2023-07-20T06:21:50;21.80;99.90
25914;DHT22;13718;50.922;5.346;2023-07-20T06:24:16;21.50;99.90
25914;DHT22;13718;50.922;5.346;2023-07-20T06:26:42;21.40;99.90
25914;DHT22;13718;50.922;5.346;2023-07-20T06:29:08;21.40;99.90
25914;DHT22;13718;50.922;5.346;2023-07-20T06:31:35;21.20;99.90
25914;DHT22;13718;50.922;5.346;2023-07-20T06:34:00;21.20;99.90
25914;DHT22;13718;50.922;5.346;2023-07-20T06:36:26;21.10;99.90
25914;DHT22;13718;50.922;5.346;2023-07-20T06:38:52;21.10;99.90
25914;DHT22;13718;50.922;5.346;2023-07-20T06:41:18;21.00;99.90
25914;DHT22;13718;50.922;5.346;2023-07-20T06:43:44;21.10;99.90
25914;DHT22;13718;50.922;5.346;2023-07-20T06:46:10;21.00;99.90
25914;DHT22;13718;50.922;5.346;2023-07-20T06:48:35;20.90;99.90
25914;DHT22;13718;50.922;5.346;2023-07-20T06:51:01;20.90;99.90
25914;DHT22;13718;50.922;5.346;2023-07-20T06:53:26;21.00;99.90
25914;DHT22;13718;50.922;5.346;2023-07-20T06:55:52;21.30;99.90
25914;DHT22;13718;50.922;5.346;2023-07-20T06:58:18;21.60;99.90
25914;DHT22;13718;50.922;5.346;2023-07-20T07:00:44;21.80;99.90
25914;DHT22;13718;50.922;5.346;2023-07-20T07:03:10;22.00;99.90
25914;DHT22;13718;50.922;5.346;2023-07-20T07:05:36;22.10;99.90
25914;DHT22;13718;50.922;5.346;2023-07-20T07:08:03;22.10;99.90
25914;DHT22;13718;50.922;5.346;2023-07-20T07:10:29;22.20;99.90
25914;DHT22;13718;50.922;5.346;2023-07-20T07:12:54;22.20;99.90
25914;DHT22;13718;50.922;5.346;2023-07-20T07:15:20;22.00;99.90
25914;DHT22;13718;50.922;5.346;2023-07-20T07:17:45;21.80;99.90
25914;DHT22;13718;50.922;5.346;2023-07-20T07:20:11;21.80;99.90
25914;DHT22;13718;50.922;5.346;2023-07-20T07:22:37;21.80;99.90
25914;DHT22;13718;50.922;5.346;2023-07-20T07:25:02;21.90;99.90
25914;DHT22;13718;50.922;5.346;2023-07-20T07:27:28;21.90;99.90
25914;DHT22;13718;50.922;5.346;2023-07-20T07:29:54;21.90;99.90
25914;DHT22;13718;50.922;5.346;2023-07-20T07:32:20;21.80;99.90
25914;DHT22;13718;50.922;5.346;2023-07-20T07:34:46;21.80;99.90
25914;DHT22;13718;50.922;5.346;2023-07-20T07:37:13;21.80;99.90
25914;DHT22;13718;50.922;5.346;2023-07-20T07:39:38;21.80;99.90
25914;DHT22;13718;50.922;5.346;2023-07-20T07:42:05;21.90;99.90
25914;DHT22;13718;50.922;5.346;2023-07-20T07:44:31;22.10;99.90
25914;DHT22;13718;50.922;5.346;2023-07-20T07:46:56;22.40;99.90
25914;DHT22;13718;50.922;5.346;2023-07-20T07:49:22;22.90;99.90
25914;DHT22;13718;50.922;5.346;2023-07-20T07:51:47;23.00;99.90
25914;DHT22;13718;50.922;5.346;2023-07-20T07:54:14;23.20;99.90
25914;DHT22;13718;50.922;5.346;2023-07-20T07:56:39;23.20;99.90
25914;DHT22;13718;50.922;5.346;2023-07-20T07:59:06;23.40;99.90
25914;DHT22;13718;50.922;5.346;2023-07-20T08:01:32;23.70;99.90
25914;DHT22;13718;50.922;5.346;2023-07-20T08:03:57;24.10;99.90
25914;DHT22;13718;50.922;5.346;2023-07-20T08:06:23;24.20;99.90
25914;DHT22;13718;50.922;5.346;2023-07-20T08:08:49;25.30;99.90
25914;DHT22;13718;50.922;5.346;2023-07-20T08:11:15;26.60;99.90
25914;DHT22;13718;50.922;5.346;2023-07-20T08:13:41;26.70;99.70
25914;DHT22;13718;50.922;5.346;2023-07-20T08:16:07;26.60;99.30
25914;DHT22;13718;50.922;5.346;2023-07-20T08:18:32;26.70;99.60
25914;DHT22;13718;50.922;5.346;2023-07-20T08:20:58;27.20;98.60
25914;DHT22;13718;50.922;5.346;2023-07-20T08:23:24;27.40;97.50
25914;DHT22;13718;50.922;5.346;2023-07-20T08:25:49;27.30;96.80
25914;DHT22;13718;50.922;5.346;2023-07-20T08:28:16;27.10;96.30
25914;DHT22;13718;50.922;5.346;2023-07-20T08:30:46;26.80;95.90
25914;DHT22;13718;50.922;5.346;2023-07-20T08:33:16;26.70;95.90
25914;DHT22;13718;50.922;5.346;2023-07-20T08:35:43;26.40;97.20
25914;DHT22;13718;50.922;5.346;2023-07-20T08:38:09;26.30;97.00
25914;DHT22;13718;50.922;5.346;2023-07-20T08:40:40;26.20;96.10
25914;DHT22;13718;50.922;5.346;2023-07-20T08:43:06;26.50;96.10
25914;DHT22;13718;50.922;5.346;2023-07-20T08:45:33;26.50;95.20
25914;DHT22;13718;50.922;5.346;2023-07-20T08:48:01;26.40;95.70
25914;DHT22;13718;50.922;5.346;2023-07-20T08:50:30;26.90;95.10
25914;DHT22;13718;50.922;5.346;2023-07-20T08:52:57;27.60;93.30
25914;DHT22;13718;50.922;5.346;2023-07-20T08:55:25;28.50;92.70
25914;DHT22;13718;50.922;5.346;2023-07-20T08:57:53;29.80;91.20
25914;DHT22;13718;50.922;5.346;2023-07-20T09:00:20;31.70;88.00
25914;DHT22;13718;50.922;5.346;2023-07-20T09:02:53;33.20;82.30
25914;DHT22;13718;50.922;5.346;2023-07-20T09:05:19;34.20;76.50
25914;DHT22;13718;50.922;5.346;2023-07-20T09:07:45;34.30;72.30
25914;DHT22;13718;50.922;5.346;2023-07-20T09:10:11;34.00;69.60
25914;DHT22;13718;50.922;5.346;2023-07-20T09:12:41;34.60;66.40
25914;DHT22;13718;50.922;5.346;2023-07-20T09:15:08;35.00;65.50
25914;DHT22;13718;50.922;5.346;2023-07-20T09:17:34;35.70;64.60
25914;DHT22;13718;50.922;5.346;2023-07-20T09:20:04;34.50;63.50
25914;DHT22;13718;50.922;5.346;2023-07-20T09:22:38;32.50;66.90
25914;DHT22;13718;50.922;5.346;2023-07-20T09:25:16;31.90;69.10
25914;DHT22;13718;50.922;5.346;2023-07-20T09:27:46;33.00;66.10
25914;DHT22;13718;50.922;5.346;2023-07-20T09:30:14;34.20;61.80
25914;DHT22;13718;50.922;5.346;2023-07-20T09:32:48;35.20;59.40
25914;DHT22;13718;50.922;5.346;2023-07-20T09:35:15;35.90;59.80
25914;DHT22;13718;50.922;5.346;2023-07-20T09:37:49;36.20;57.90
25914;DHT22;13718;50.922;5.346;2023-07-20T09:40:18;36.30;56.80
25914;DHT22;13718;50.922;5.346;2023-07-20T09:42:44;36.40;55.60
25914;DHT22;13718;50.922;5.346;2023-07-20T09:45:10;34.80;56.80
25914;DHT22;13718;50.922;5.346;2023-07-20T09:47:37;33.50;60.60
25914;DHT22;13718;50.922;5.346;2023-07-20T09:50:07;32.00;62.70
25914;DHT22;13718;50.922;5.346;2023-07-20T09:52:38;30.70;65.70
25914;DHT22;13718;50.922;5.346;2023-07-20T09:55:06;29.70;67.20
25914;DHT22;13718;50.922;5.346;2023-07-20T09:57:36;29.20;68.30
25914;DHT22;13718;50.922;5.346;2023-07-20T10:00:04;28.60;69.70
25914;DHT22;13718;50.922;5.346;2023-07-20T10:02:37;28.20;70.00
25914;DHT22;13718;50.922;5.346;2023-07-20T10:05:06;28.20;71.20
25914;DHT22;13718;50.922;5.346;2023-07-20T10:07:36;27.90;72.60
25914;DHT22;13718;50.922;5.346;2023-07-20T10:10:06;27.50;71.80
25914;DHT22;13718;50.922;5.346;2023-07-20T10:12:36;27.30;73.00
25914;DHT22;13718;50.922;5.346;2023-07-20T10:15:27;27.30;73.40
25914;DHT22;13718;50.922;5.346;2023-07-20T10:20:25;27.10;73.60
25914;DHT22;13718;50.922;5.346;2023-07-20T10:22:53;27.00;75.80
25914;DHT22;13718;50.922;5.346;2023-07-20T10:25:21;27.10;75.40
25914;DHT22;13718;50.922;5.346;2023-07-20T10:27:48;27.10;76.50
25914;DHT22;13718;50.922;5.346;2023-07-20T10:30:14;27.30;75.30
25914;DHT22;13718;50.922;5.346;2023-07-20T10:32:41;27.10;75.70
25914;DHT22;13718;50.922;5.346;2023-07-20T10:35:15;26.90;75.50
25914;DHT22;13718;50.922;5.346;2023-07-20T10:37:54;26.90;75.10
25914;DHT22;13718;50.922;5.346;2023-07-20T10:40:39;26.80;74.20
25914;DHT22;13718;50.922;5.346;2023-07-20T10:43:08;26.60;74.30
25914;DHT22;13718;50.922;5.346;2023-07-20T10:45:42;26.70;76.40
25914;DHT22;13718;50.922;5.346;2023-07-20T10:48:14;26.80;76.00
25914;DHT22;13718;50.922;5.346;2023-07-20T10:50:41;26.80;76.50
25914;DHT22;13718;50.922;5.346;2023-07-20T10:53:18;27.10;76.40
25914;DHT22;13718;50.922;5.346;2023-07-20T10:55:44;27.00;74.30
25914;DHT22;13718;50.922;5.346;2023-07-20T10:58:15;27.00;73.30
25914;DHT22;13718;50.922;5.346;2023-07-20T11:01:05;26.90;74.80
25914;DHT22;13718;50.922;5.346;2023-07-20T11:03:39;27.00;74.90
25914;DHT22;13718;50.922;5.346;2023-07-20T11:09:11;26.70;75.50
25914;DHT22;13718;50.922;5.346;2023-07-20T11:11:40;26.60;75.30
25914;DHT22;13718;50.922;5.346;2023-07-20T11:14:08;26.50;75.90
25914;DHT22;13718;50.922;5.346;2023-07-20T11:16:41;26.50;75.50
25914;DHT22;13718;50.922;5.346;2023-07-20T11:19:20;26.60;73.50
25914;DHT22;13718;50.922;5.346;2023-07-20T11:21:49;26.50;72.90
25914;DHT22;13718;50.922;5.346;2023-07-20T11:24:15;26.60;73.00
25914;DHT22;13718;50.922;5.346;2023-07-20T11:26:45;26.60;72.10
25914;DHT22;13718;50.922;5.346;2023-07-20T11:29:12;26.80;73.10
25914;DHT22;13718;50.922;5.346;2023-07-20T11:31:39;26.90;73.50
25914;DHT22;13718;50.922;5.346;2023-07-20T11:34:06;27.00;74.00
25914;DHT22;13718;50.922;5.346;2023-07-20T11:36:33;27.00;74.50
25914;DHT22;13718;50.922;5.346;2023-07-20T11:38:59;27.10;72.80
25914;DHT22;13718;50.922;5.346;2023-07-20T11:41:25;27.10;73.10
25914;DHT22;13718;50.922;5.346;2023-07-20T11:43:54;27.10;72.90
25914;DHT22;13718;50.922;5.346;2023-07-20T11:46:20;27.10;73.40
25914;DHT22;13718;50.922;5.346;2023-07-20T11:48:45;27.10;72.20
25914;DHT22;13718;50.922;5.346;2023-07-20T11:51:15;27.10;70.60
25914;DHT22;13718;50.922;5.346;2023-07-20T11:53:42;27.10;70.90
25914;DHT22;13718;50.922;5.346;2023-07-20T11:56:08;27.20;70.10
25914;DHT22;13718;50.922;5.346;2023-07-20T11:58:33;27.40;70.40
25914;DHT22;13718;50.922;5.346;2023-07-20T12:00:59;27.60;71.80
25914;DHT22;13718;50.922;5.346;2023-07-20T12:03:25;27.80;71.00
25914;DHT22;13718;50.922;5.346;2023-07-20T12:05:51;27.80;69.90
25914;DHT22;13718;50.922;5.346;2023-07-20T12:08:16;27.90;70.50
25914;DHT22;13718;50.922;5.346;2023-07-20T12:10:42;27.70;71.70
25914;DHT22;13718;50.922;5.346;2023-07-20T12:13:10;27.50;71.20
25914;DHT22;13718;50.922;5.346;2023-07-20T12:15:36;27.40;71.60
25914;DHT22;13718;50.922;5.346;2023-07-20T12:18:03;27.60;72.00
25914;DHT22;13718;50.922;5.346;2023-07-20T12:20:30;27.70;71.80
25914;DHT22;13718;50.922;5.346;2023-07-20T12:23:01;27.80;71.50
25914;DHT22;13718;50.922;5.346;2023-07-20T12:25:40;28.00;70.30
25914;DHT22;13718;50.922;5.346;2023-07-20T12:28:11;28.20;70.30
25914;DHT22;13718;50.922;5.346;2023-07-20T12:30:38;28.40;68.40
25914;DHT22;13718;50.922;5.346;2023-07-20T12:33:04;28.40;67.90
25914;DHT22;13718;50.922;5.346;2023-07-20T12:35:31;28.50;66.90
25914;DHT22;13718;50.922;5.346;2023-07-20T12:37:57;28.50;67.70
25914;DHT22;13718;50.922;5.346;2023-07-20T12:40:22;28.20;67.70
25914;DHT22;13718;50.922;5.346;2023-07-20T12:42:48;28.20;68.90
25914;DHT22;13718;50.922;5.346;2023-07-20T12:45:14;28.10;69.10
25914;DHT22;13718;50.922;5.346;2023-07-20T12:47:40;28.10;68.80
25914;DHT22;13718;50.922;5.346;2023-07-20T12:50:08;28.20;68.50
25914;DHT22;13718;50.922;5.346;2023-07-20T12:52:38;28.20;69.00
25914;DHT22;13718;50.922;5.346;2023-07-20T12:55:05;28.10;67.40
25914;DHT22;13718;50.922;5.346;2023-07-20T12:57:31;28.10;66.30
25914;DHT22;13718;50.922;5.346;2023-07-20T12:59:56;28.10;64.80
25914;DHT22;13718;50.922;5.346;2023-07-20T13:02:22;28.20;65.50
25914;DHT22;13718;50.922;5.346;2023-07-20T13:04:48;28.30;65.40
25914;DHT22;13718;50.922;5.346;2023-07-20T13:07:14;28.40;65.80
25914;DHT22;13718;50.922;5.346;2023-07-20T13:09:39;28.60;66.50
25914;DHT22;13718;50.922;5.346;2023-07-20T13:12:05;28.50;66.70
25914;DHT22;13718;50.922;5.346;2023-07-20T13:14:31;28.50;65.80
25914;DHT22;13718;50.922;5.346;2023-07-20T13:16:57;28.50;65.50
25914;DHT22;13718;50.922;5.346;2023-07-20T13:19:23;28.50;65.80
25914;DHT22;13718;50.922;5.346;2023-07-20T13:21:48;28.50;66.00
25914;DHT22;13718;50.922;5.346;2023-07-20T13:24:14;28.40;64.80
25914;DHT22;13718;50.922;5.346;2023-07-20T13:26:40;28.30;64.70
25914;DHT22;13718;50.922;5.346;2023-07-20T13:29:06;28.30;64.10
25914;DHT22;13718;50.922;5.346;2023-07-20T13:31:31;28.20;63.30
25914;DHT22;13718;50.922;5.346;2023-07-20T13:33:57;28.10;63.40
25914;DHT22;13718;50.922;5.346;2023-07-20T13:36:23;28.10;63.80
25914;DHT22;13718;50.922;5.346;2023-07-20T13:38:49;28.10;64.00
25914;DHT22;13718;50.922;5.346;2023-07-20T13:41:14;28.20;64.20
25914;DHT22;13718;50.922;5.346;2023-07-20T13:43:41;28.30;65.20
25914;DHT22;13718;50.922;5.346;2023-07-20T13:46:07;28.30;65.50
25914;DHT22;13718;50.922;5.346;2023-07-20T13:48:32;28.20;65.30
25914;DHT22;13718;50.922;5.346;2023-07-20T13:50:58;28.00;65.70
25914;DHT22;13718;50.922;5.346;2023-07-20T13:53:23;27.70;63.20
25914;DHT22;13718;50.922;5.346;2023-07-20T13:55:49;27.50;65.70
25914;DHT22;13718;50.922;5.346;2023-07-20T13:58:15;27.30;67.30
25914;DHT22;13718;50.922;5.346;2023-07-20T14:00:40;27.20;66.00
25914;DHT22;13718;50.922;5.346;2023-07-20T14:03:06;27.10;65.90
25914;DHT22;13718;50.922;5.346;2023-07-20T14:05:31;27.00;65.70
25914;DHT22;13718;50.922;5.346;2023-07-20T14:07:57;27.10;64.90
25914;DHT22;13718;50.922;5.346;2023-07-20T14:10:22;27.00;66.00
25914;DHT22;13718;50.922;5.346;2023-07-20T14:12:48;26.80;65.20
25914;DHT22;13718;50.922;5.346;2023-07-20T14:15:13;26.60;64.80
25914;DHT22;13718;50.922;5.346;2023-07-20T14:17:39;26.50;65.50
25914;DHT22;13718;50.922;5.346;2023-07-20T14:20:05;26.60;66.80
25914;DHT22;13718;50.922;5.346;2023-07-20T14:22:32;26.70;67.00
25914;DHT22;13718;50.922;5.346;2023-07-20T14:24:57;26.80;65.40
25914;DHT22;13718;50.922;5.346;2023-07-20T14:27:24;26.80;64.30
25914;DHT22;13718;50.922;5.346;2023-07-20T14:29:50;26.80;62.60
25914;DHT22;13718;50.922;5.346;2023-07-20T14:32:15;26.80;63.90
25914;DHT22;13718;50.922;5.346;2023-07-20T14:34:41;27.00;64.80
25914;DHT22;13718;50.922;5.346;2023-07-20T14:37:07;26.80;64.30
25914;DHT22;13718;50.922;5.346;2023-07-20T14:39:32;26.50;63.30
25914;DHT22;13718;50.922;5.346;2023-07-20T14:41:58;26.70;62.80
25914;DHT22;13718;50.922;5.346;2023-07-20T14:44:23;26.50;63.50
25914;DHT22;13718;50.922;5.346;2023-07-20T14:46:50;26.20;64.40
25914;DHT22;13718;50.922;5.346;2023-07-20T14:49:16;26.10;63.10
25914;DHT22;13718;50.922;5.346;2023-07-20T14:51:41;26.10;63.50
25914;DHT22;13718;50.922;5.346;2023-07-20T14:54:12;26.10;63.10
25914;DHT22;13718;50.922;5.346;2023-07-20T14:56:38;26.20;63.30
25914;DHT22;13718;50.922;5.346;2023-07-20T14:59:05;26.30;64.20
25914;DHT22;13718;50.922;5.346;2023-07-20T15:01:31;26.40;65.00
25914;DHT22;13718;50.922;5.346;2023-07-20T15:03:57;26.50;65.00
25914;DHT22;13718;50.922;5.346;2023-07-20T15:06:23;26.60;65.00
25914;DHT22;13718;50.922;5.346;2023-07-20T15:08:48;26.70;63.80
25914;DHT22;13718;50.922;5.346;2023-07-20T15:11:14;26.70;64.70
25914;DHT22;13718;50.922;5.346;2023-07-20T15:13:39;26.80;64.60
25914;DHT22;13718;50.922;5.346;2023-07-20T15:16:08;26.80;64.10
25914;DHT22;13718;50.922;5.346;2023-07-20T15:18:35;26.80;63.30
25914;DHT22;13718;50.922;5.346;2023-07-20T15:21:00;26.80;63.50
25914;DHT22;13718;50.922;5.346;2023-07-20T15:23:26;26.70;63.60
25914;DHT22;13718;50.922;5.346;2023-07-20T15:25:51;26.60;63.60
25914;DHT22;13718;50.922;5.346;2023-07-20T15:28:17;26.50;64.60
25914;DHT22;13718;50.922;5.346;2023-07-20T15:30:42;26.60;65.20
25914;DHT22;13718;50.922;5.346;2023-07-20T15:33:08;26.60;64.30
25914;DHT22;13718;50.922;5.346;2023-07-20T15:35:33;26.70;65.10
25914;DHT22;13718;50.922;5.346;2023-07-20T15:37:59;26.80;65.30
25914;DHT22;13718;50.922;5.346;2023-07-20T15:40:25;26.70;67.50
25914;DHT22;13718;50.922;5.346;2023-07-20T15:42:50;26.60;69.00